Terminal Aerodrome Forecast
Issued by NWS

Home | Current Version | Previous Version | Text Only | Print | Product List | Glossary On
Versions: 1 2 3 4 5 6 7 8 9 10 11 12 13 14 15 16 17 18 19 20 21
226
FTAK31 PAJN 181421 AAA
TAFAYA
TAF AMD
PAYA 181421Z 1814/1912 04004KT P6SM FEW001 OVC060
      TEMPO 1814/1816 6SM BCFG SCT001
     FM181600 VRB03KT P6SM BKN060
     FM182100 24010KT 6SM -SHRA BKN025 OVC040
     FM190000 12010KT 4SM -RA BR FEW006 SCT010 OVC025
      AMD LTD TO CLD VIS AND WIND=

USA.gov is the U.S. government's official web portal to all federal, state and local government web resources and services.